Puerto Banus, Marbella

>

This is an optional block (switch it off / on) in the settings - file ($SITE['banners'] = false;)

You can display ads, any other important text or photo’s using text / html or PHP code.

You can place one or more at the top and or bottom and it can all be different for content / size .



Meteosat more information blitzortung!


Radar lluvias  rain snow radar


Visita nuestra red de sitios de meteo:

Documentation for the template used

MeteoibericaRed estaciones Meteorologicas

MeteoclimaticRed estaciones Meteorologicas



Sin Advertencias climatologicas .En este momento tenemos Nivel Verde.    No hay Alarmas

Pagina Historial Weather Underground texto

Diario Resumen January 5, 2018 Unidades:  impérial    Métrico   Tanto
« Anterior Dia
Siguiente Dia »
Diario Semana Mensual Anual Personalizada
  Maxima: Minima: Media:
Temperatura: 65.7 °F 50.4 °F 57.7 °F
Punto de rocío: 53.4 °F 44.6 °F 49.5 °F
Humedad: 82 % 54 % 74 %
Velocidad del Viento: 26.5 mph 1.2 mph 10.6 mph
Ráfagas de viento: 29 mph - -
Viento:- - WNW
Pression baro: 30.2 in 29.7 in -
Précipitaciones: 0 in    
Historical Graphs
 
 
Datos de tabla para January 5, 2018
Tiempo Temperatura Punto de rocío Pression baro Viento Velocidad del Viento Ráfagas de viento Humedad Las precipitaciones Rate ( Hora )
00:00 55.9 °F 49.6 °F 30.2 in NNW 5.8 mph 5.8 mph 79 % 0 in
00:02 56.1 °F 49.6 °F 30.2 in NNW 5.8 mph 5.8 mph 79 % 0 in
00:07 56.1 °F 49.6 °F 30.2 in NNW 5 mph 5 mph 79 % 0 in
00:08 56.1 °F 49.6 °F 30.2 in NNW 5 mph 5 mph 79 % 0 in
00:13 55.9 °F 49.6 °F 30.2 in North 5.8 mph 5.8 mph 79 % 0 in
00:15 55.9 °F 49.6 °F 30.2 in North 4.6 mph 4.6 mph 79 % 0 in
00:17 55.9 °F 49.6 °F 30.2 in North 4.6 mph 4.6 mph 79 % 0 in
00:22 55.9 °F 49.6 °F 30.2 in NNW 6.9 mph 6.9 mph 79 % 0 in
00:27 56.1 °F 49.8 °F 30.2 in NNW 4.6 mph 4.6 mph 79 % 0 in
00:32 56.1 °F 49.8 °F 30.2 in North 5 mph 5 mph 79 % 0 in
00:34 56.1 °F 49.8 °F 30.2 in North 3.5 mph 3.5 mph 79 % 0 in
00:39 55.9 °F 49.6 °F 30.2 in NNW 4.6 mph 4.6 mph 79 % 0 in
00:40 55.9 °F 49.6 °F 30.2 in NNW 4.6 mph 4.6 mph 79 % 0 in
00:45 55.9 °F 49.6 °F 30.2 in NNW 3.5 mph 3.5 mph 79 % 0 in
00:47 55.9 °F 49.6 °F 30.2 in NNW 3.5 mph 3.5 mph 79 % 0 in
00:52 55.9 °F 49.6 °F 30.2 in NNW 4.6 mph 4.6 mph 79 % 0 in
00:54 56.1 °F 49.6 °F 30.2 in NNW 3.5 mph 3.5 mph 79 % 0 in
00:59 56.1 °F 49.6 °F 30.2 in NNW 3.5 mph 3.5 mph 79 % 0 in
01:02 56.1 °F 49.6 °F 30.2 in NNW 4.6 mph 4.6 mph 79 % 0 in
01:07 55.9 °F 49.6 °F 30.2 in NNW 3.5 mph 3.5 mph 79 % 0 in
01:12 55.9 °F 49.3 °F 30.2 in NNW 3.5 mph 3.5 mph 78 % 0 in
01:14 55.9 °F 49.1 °F 30.2 in NNW 4.6 mph 4.6 mph 78 % 0 in
01:16 55.9 °F 49.1 °F 30.2 in NNW 5 mph 5 mph 78 % 0 in
01:22 55.8 °F 48.9 °F 30.2 in NNW 5 mph 5 mph 78 % 0 in
01:26 55.6 °F 49.3 °F 30.2 in North 5 mph 5 mph 79 % 0 in
01:31 55.4 °F 48.9 °F 30.2 in North 3.5 mph 3.8 mph 79 % 0 in
01:33 55.2 °F 48.9 °F 30.2 in North 5 mph 5 mph 79 % 0 in
01:36 55.2 °F 48.7 °F 30.2 in North 5 mph 5 mph 79 % 0 in
01:40 55 °F 48.9 °F 30.2 in North 5.8 mph 5.8 mph 80 % 0 in
01:45 55 °F 48.9 °F 30.2 in North 5.8 mph 5.8 mph 80 % 0 in
01:47 54.9 °F 48.7 °F 30.2 in North 4.6 mph 4.6 mph 80 % 0 in
01:52 54.9 °F 48.7 °F 30.2 in North 6 mph 6 mph 80 % 0 in
01:55 54.7 °F 48.6 °F 30.1 in North 5.8 mph 5.8 mph 80 % 0 in
01:58 54.7 °F 48.6 °F 30.1 in North 5.8 mph 5.8 mph 80 % 0 in
02:03 54.7 °F 48.6 °F 30.1 in North 6.9 mph 6.9 mph 80 % 0 in
02:05 54.7 °F 48.6 °F 30.1 in North 5.8 mph 5.8 mph 80 % 0 in
02:10 54.5 °F 48.6 °F 30.1 in North 3.5 mph 3.6 mph 80 % 0 in
02:11 54.5 °F 48.6 °F 30.1 in North 5 mph 5 mph 80 % 0 in
02:16 54.3 °F 48.6 °F 30.1 in North 6 mph 6 mph 81 % 0 in
02:21 54.1 °F 48.6 °F 30.1 in North 5.8 mph 5.8 mph 81 % 0 in
02:25 54.1 °F 48.4 °F 30.1 in North 5.8 mph 5.8 mph 81 % 0 in
02:30 54 °F 48.4 °F 30.1 in North 6 mph 6 mph 81 % 0 in
02:31 54 °F 48.4 °F 30.1 in North 6 mph 6 mph 81 % 0 in
02:36 54 °F 48.2 °F 30.1 in NNW 5.8 mph 5.8 mph 81 % 0 in
02:39 54 °F 48.2 °F 30.1 in NNW 5.8 mph 5.8 mph 81 % 0 in
02:44 54 °F 48.4 °F 30.1 in North 5.8 mph 5.8 mph 81 % 0 in
02:45 54 °F 48.4 °F 30.1 in NNW 5 mph 5 mph 81 % 0 in
02:49 54 °F 48.4 °F 30.1 in North 7 mph 7 mph 81 % 0 in
02:54 54 °F 48.2 °F 30.1 in North 6.9 mph 6.9 mph 81 % 0 in
02:55 54 °F 48.2 °F 30.1 in North 5 mph 7 mph 81 % 0 in
02:57 53.8 °F 48 °F 30.1 in North 6.9 mph 6.9 mph 81 % 0 in
03:02 53.8 °F 48 °F 30.1 in North 5.8 mph 5.8 mph 81 % 0 in
03:04 53.6 °F 47.8 °F 30.1 in North 5.8 mph 5.8 mph 81 % 0 in
03:06 53.6 °F 47.8 °F 30.1 in North 6.9 mph 6.9 mph 81 % 0 in
03:11 53.4 °F 47.8 °F 30.1 in NNW 4.6 mph 4.6 mph 81 % 0 in
03:14 53.6 °F 47.8 °F 30.1 in NNW 5.8 mph 5.8 mph 81 % 0 in
03:19 53.6 °F 47.8 °F 30.1 in NNW 4 mph 4 mph 81 % 0 in
03:23 53.6 °F 47.8 °F 30.1 in NNW 6 mph 6 mph 81 % 0 in
03:28 53.8 °F 48 °F 30.1 in NNW 5.8 mph 5.8 mph 81 % 0 in
03:31 53.8 °F 48 °F 30.1 in North 5.8 mph 5.8 mph 81 % 0 in
03:36 53.6 °F 47.8 °F 30.1 in North 6.9 mph 6.9 mph 81 % 0 in
03:41 53.4 °F 47.7 °F 30.1 in NNW 4.6 mph 4.6 mph 81 % 0 in
03:46 53.2 °F 47.7 °F 30.1 in North 6.9 mph 6.9 mph 81 % 0 in
03:49 53.2 °F 47.5 °F 30.1 in NNW 8.1 mph 8.1 mph 81 % 0 in
03:53 53.1 °F 47.5 °F 30.1 in North 6.9 mph 6.9 mph 81 % 0 in
03:54 53.1 °F 47.5 °F 30.1 in NNW 5.8 mph 5.8 mph 81 % 0 in
03:59 53.1 °F 47.3 °F 30.1 in NNW 5.8 mph 5.8 mph 81 % 0 in
04:00 53.1 °F 47.3 °F 30.1 in NNW 6.9 mph 6.9 mph 81 % 0 in
04:05 53.1 °F 47.3 °F 30.1 in North 5.8 mph 5.8 mph 81 % 0 in
04:09 52.9 °F 47.1 °F 30.1 in NNW 5.8 mph 5.8 mph 81 % 0 in
04:14 53.1 °F 47.7 °F 30.1 in NW 3.5 mph 3.5 mph 82 % 0 in
04:19 53.1 °F 47.7 °F 30.1 in NW 3 mph 3 mph 82 % 0 in
04:25 53.1 °F 47.7 °F 30.1 in NW 3.5 mph   82 % 0 in
04:30 53.2 °F 47.8 °F 30.1 in NW 4 mph 4 mph 82 % 0 in
04:31 53.2 °F 47.5 °F 30.1 in NW 4.6 mph 4.6 mph 81 % 0 in
04:34 53.2 °F 47.7 °F 30.1 in NNW 5 mph 5 mph 81 % 0 in
04:39 53.6 °F 47.8 °F 30.1 in NNW 3.5 mph 3.5 mph 81 % 0 in
04:40 53.6 °F 47.8 °F 30.1 in NNW 3.5 mph 3.5 mph 81 % 0 in
04:45 54 °F 47.8 °F 30.1 in NNW 3.5 mph 3.5 mph 80 % 0 in
04:50 54.1 °F 48 °F 30.1 in NNW 3.5 mph 3.5 mph 80 % 0 in
04:55 54.1 °F 47.7 °F 30.1 in NNW 3.5 mph 3.5 mph 79 % 0 in
04:58 54.1 °F 47.7 °F 30.1 in NNW 3.5 mph 3.5 mph 79 % 0 in
05:03 54.1 °F 47.5 °F 30.1 in NNW 3.5 mph 3.5 mph 78 % 0 in
05:04 54.3 °F 47.7 °F 30.1 in NNW 3.5 mph 3.5 mph 78 % 0 in
05:09 54.1 °F 47.5 °F 30.1 in NNW 3.5 mph 3.5 mph 78 % 0 in
05:10 54.1 °F 47.5 °F 30.1 in NNW 3.5 mph 3.5 mph 78 % 0 in
05:15 54 °F 46.9 °F 30.1 in NNW 4.6 mph 4.6 mph 77 % 0 in
05:17 54 °F 46.9 °F 30.1 in NNW 4.6 mph 4.6 mph 77 % 0 in
05:21 53.8 °F 46.9 °F 30.1 in NNW 4 mph 4 mph 78 % 0 in
05:26 53.6 °F 46.9 °F 30.1 in NNW 3.5 mph 3.5 mph 78 % 0 in
05:27 53.6 °F 46.9 °F 30.1 in NNW 3.5 mph 3.5 mph 78 % 0 in
05:30 53.4 °F 46.8 °F 30.1 in NNW 3.5 mph 3.5 mph 78 % 0 in
05:32 53.2 °F 46.6 °F 30.1 in NNW 4 mph 4 mph 78 % 0 in
05:37 53.1 °F 46.2 °F 30.1 in NW 5 mph 5 mph 78 % 0 in
05:38 53.1 °F 46.2 °F 30.1 in NW 5 mph 5 mph 78 % 0 in
05:42 53.1 °F 46.4 °F 30.1 in NNW 5 mph 5 mph 78 % 0 in
05:44 53.1 °F 46.2 °F 30.1 in NNW 4.6 mph 4.6 mph 78 % 0 in
05:47 52.5 °F 45.9 °F 30.1 in NNW 5.8 mph 5.8 mph 78 % 0 in
05:49 52.3 °F 45.7 °F 30.1 in NNW 7 mph 7 mph 78 % 0 in
05:54 51.6 °F 45.3 °F 30.1 in North 6 mph 6 mph 79 % 0 in
05:59 51.3 °F 45.3 °F 30.1 in NNW 3.5 mph 3.5 mph 80 % 0 in
06:00 51.3 °F 45.7 °F 30.1 in NNW 4 mph 4 mph 81 % 0 in
06:05 51.3 °F 45.7 °F 30.1 in NNW 6.9 mph 6.9 mph 81 % 0 in
06:06 51.3 °F 45.7 °F 30.1 in NNW 6.9 mph 6.9 mph 81 % 0 in
06:11 51.3 °F 45.7 °F 30.1 in NNW 5.8 mph 5.8 mph 81 % 0 in
06:15 51.3 °F 45.7 °F 30.1 in NNW 4 mph 4 mph 81 % 0 in
06:20 51.3 °F 45.7 °F 30.1 in NNW 4 mph 4 mph 81 % 0 in
06:25 51.1 °F 45.3 °F 30.1 in North 5.8 mph 5.8 mph 81 % 0 in
06:27 50.9 °F 45.3 °F 30.1 in North 6 mph 6 mph 81 % 0 in
06:32 50.7 °F 45.3 °F 30.1 in NNW 6.9 mph 6.9 mph 82 % 0 in
06:36 50.7 °F 45.3 °F 30.1 in North 8.1 mph 8.1 mph 82 % 0 in
06:38 50.7 °F 45.3 °F 30.1 in North 6.9 mph 6.9 mph 82 % 0 in
06:39 50.5 °F 45.3 °F 30.1 in North 5.8 mph 5.8 mph 82 % 0 in
06:42 50.5 °F 45.3 °F 30.1 in North 6.9 mph 6.9 mph 82 % 0 in
06:47 50.4 °F 45.1 °F 30.1 in NNW 8.1 mph 8.1 mph 82 % 0 in
06:52 50.5 °F 45.1 °F 30.1 in NNW 4.6 mph 4.6 mph 82 % 0 in
06:57 50.5 °F 45.3 °F 30.1 in NNW 4.6 mph 4.6 mph 82 % 0 in
06:58 50.5 °F 45.3 °F 30.1 in NNW 5 mph 5 mph 82 % 0 in
07:03 50.7 °F 45.5 °F 30.1 in NNW 6 mph 6 mph 82 % 0 in
07:04 50.7 °F 45.5 °F 30.1 in NNW 5.8 mph 5.8 mph 82 % 0 in
07:09 50.9 °F 45.7 °F 30.1 in NNW 4 mph 4 mph 82 % 0 in
07:10 50.9 °F 45.7 °F 30.1 in NNW 3.5 mph 3.5 mph 82 % 0 in
07:15 51.1 °F 45.3 °F 30.1 in NNW 3.5 mph 3.5 mph 81 % 0 in
07:19 51.1 °F 45.3 °F 30.1 in NNW 4 mph 4 mph 81 % 0 in
07:24 51.1 °F 45.5 °F 30.1 in NNW 4 mph 4 mph 81 % 0 in
07:29 51.1 °F 45.5 °F 30.1 in WNW 3.5 mph 3.5 mph 81 % 0 in
07:32 51.1 °F 45.5 °F 30.1 in WNW 2.3 mph 2.3 mph 81 % 0 in
07:35 50.7 °F 45 °F 30.1 in NW 2.3 mph 2.3 mph 80 % 0 in
07:40 50.7 °F 45.1 °F 30.1 in NW 2.3 mph 2.3 mph 81 % 0 in
07:42 50.5 °F 45 °F 30.1 in NW 3.5 mph 3.5 mph 81 % 0 in
07:43 50.5 °F 45 °F 30.1 in NW 3.5 mph 3.5 mph 81 % 0 in
07:48 50.5 °F 45 °F 30.1 in NW 3.5 mph 3.5 mph 81 % 0 in
07:53 50.7 °F 45.1 °F 30.1 in North 6.9 mph 6.9 mph 81 % 0 in
07:55 50.7 °F 45 °F 30.1 in NNW 5.8 mph 5.8 mph 80 % 0 in
08:00 50.7 °F 45 °F 30.1 in NNW 6.9 mph 6.9 mph 80 % 0 in
08:04 50.7 °F 45 °F 30.1 in North 3.5 mph 3.5 mph 80 % 0 in
08:06 50.7 °F 45 °F 30.1 in North 5 mph 5 mph 80 % 0 in
08:11 50.5 °F 44.6 °F 30.1 in NNW 6.9 mph 6.9 mph 80 % 0 in
08:16 50.4 °F 44.8 °F 30.1 in NW 8.1 mph 8.1 mph 81 % 0 in
08:17 50.4 °F 44.8 °F 30.1 in NNW 6.9 mph 6.9 mph 81 % 0 in
08:22 50.4 °F 44.8 °F 30.1 in North 8.1 mph 8.1 mph 81 % 0 in
08:23 50.4 °F 44.8 °F 30.1 in North 9.2 mph 9.2 mph 81 % 0 in
08:25 50.4 °F 44.8 °F 30.1 in North 6.9 mph 6.9 mph 81 % 0 in
08:30 50.5 °F 45 °F 30.1 in North 9.2 mph 9.2 mph 81 % 0 in
08:31 50.4 °F 44.8 °F 30.1 in North 9.2 mph 9.2 mph 81 % 0 in
08:36 50.4 °F 44.8 °F 30.1 in North 9.2 mph 9.2 mph 81 % 0 in
08:41 50.5 °F 45 °F 30.1 in NNW 9.2 mph 9.2 mph 81 % 0 in
08:46 50.5 °F 45 °F 30.1 in North 9.2 mph 9.2 mph 81 % 0 in
08:49 50.7 °F 45.1 °F 30.1 in North 9.2 mph 9.2 mph 81 % 0 in
08:52 50.7 °F 45.1 °F 30.1 in WNW 8.1 mph 8.1 mph 81 % 0 in
08:57 51.1 °F 45.5 °F 30.1 in North 11 mph 11 mph 81 % 0 in
09:02 52.5 °F 46.8 °F 30.1 in NNW 6.9 mph 6.9 mph 81 % 0 in
09:03 52.5 °F 46.8 °F 30.1 in NNW 4.6 mph 4.6 mph 81 % 0 in
09:08 53.1 °F 46.8 °F 30.1 in NNW 5 mph 5 mph 79 % 0 in
09:10 53.2 °F 46.9 °F 30.1 in North 8.1 mph 8.1 mph 79 % 0 in
09:14 53.4 °F 46.8 °F 30.1 in NNW 3.5 mph 3.5 mph 78 % 0 in
09:18 53.8 °F 46.9 °F 30.1 in NNW 4 mph 4 mph 78 % 0 in
09:20 53.8 °F 46.9 °F 30.1 in NNW 6.9 mph 6.9 mph 78 % 0 in
09:24 54 °F 46.9 °F 30.1 in North 6 mph 6 mph 77 % 0 in
09:26 54 °F 46.6 °F 30.1 in North 6.9 mph 6.9 mph 76 % 0 in
09:30 53.8 °F 46 °F 30.1 in NNW 6.9 mph 6.9 mph 75 % 0 in
09:32 53.8 °F 46.2 °F 30.1 in North 10.4 mph 10.4 mph 76 % 0 in
09:35 53.2 °F 45.7 °F 30.1 in North 8.1 mph 8.1 mph 75 % 0 in
09:40 53.4 °F 46 °F 30.1 in NNW 5.8 mph 5.8 mph 76 % 0 in
09:43 53.8 °F 46.2 °F 30.1 in North 5.8 mph 5.8 mph 76 % 0 in
09:48 54.1 °F 46.8 °F 30.1 in North 6.9 mph 6.9 mph 76 % 0 in
09:50 54.3 °F 46.9 °F 30.1 in North 3.5 mph 3.5 mph 76 % 0 in
09:51 54.5 °F 47.1 °F 30.1 in NNW 3.5 mph 3.5 mph 76 % 0 in
09:55 54.9 °F 47.1 °F 30.1 in North 5.8 mph 5.8 mph 75 % 0 in
10:00 55.2 °F 47.5 °F 30.1 in North 2.3 mph 2.3 mph 75 % 0 in
10:05 55.8 °F 47.8 °F 30.1 in North 3.5 mph 3.5 mph 75 % 0 in
10:06 55.8 °F 48 °F 30.1 in North 4 mph 4 mph 75 % 0 in
10:12 56.1 °F 47.7 °F 30.1 in NNE 5.8 mph 5.8 mph 73 % 0 in
10:17 56.1 °F 47.7 °F 30.1 in NNE 2.3 mph 2.3 mph 73 % 0 in
10:22 56.7 °F 48 °F 30.1 in NNE 1.2 mph 1.2 mph 73 % 0 in
10:27 57.2 °F 48.6 °F 30.1 in NNE 3.5 mph 3.5 mph 73 % 0 in
10:28 57.4 °F 48.7 °F 30.1 in NNE 3.5 mph 3.5 mph 73 % 0 in
10:31 57.4 °F 48.4 °F 30.1 in NE 5.8 mph 5.8 mph 72 % 0 in
10:36 57.6 °F 48.9 °F 30.1 in NE 4.6 mph 4.6 mph 73 % 0 in
10:37 57.7 °F 49.1 °F 30.1 in NE 3.5 mph 3.5 mph 73 % 0 in
10:42 58.3 °F 50 °F 30.1 in NW 6.9 mph 6.9 mph 74 % 0 in
10:47 59.2 °F 50.2 °F 30.1 in West 17.3 mph 17.3 mph 72 % 0 in
10:50 60.1 °F 50.4 °F 30.1 in West 13 mph 13 mph 70 % 0 in
10:51 60.4 °F 50.5 °F 30.1 in West 11 mph 11 mph 70 % 0 in
10:56 61.5 °F 50.4 °F 30.1 in WSW 9.2 mph 9.2 mph 67 % 0 in
10:57 61.5 °F 50.5 °F 30.1 in West 9 mph 9 mph 67 % 0 in
11:02 62.1 °F 50.2 °F 30.1 in WSW 12 mph 12 mph 65 % 0 in
11:07 62.4 °F 50.2 °F 30.1 in WSW 15 mph 15 mph 64 % 0 in
11:08 62.4 °F 50.2 °F 30.1 in WSW 17.3 mph 17.3 mph 64 % 0 in
11:10 62.6 °F 49.8 °F 30.1 in WSW 15 mph 15 mph 63 % 0 in
11:13 62.8 °F 49.8 °F 30.1 in WSW 9.2 mph 9.2 mph 63 % 0 in
11:16 62.8 °F 50 °F 30.1 in WSW 13.8 mph 13.8 mph 63 % 0 in
11:21 63 °F 50.2 °F 30.1 in WSW 17.3 mph 17.3 mph 63 % 0 in
11:26 62.8 °F 50.9 °F 30.1 in WSW 17.3 mph 17.3 mph 65 % 0 in
11:31 62.2 °F 52 °F 30.1 in WSW 13.8 mph 13.8 mph 69 % 0 in
11:33 62.1 °F 51.4 °F 30.1 in West 15 mph 15 mph 68 % 0 in
11:36 62.1 °F 50.9 °F 30.1 in West 12 mph 12 mph 67 % 0 in
11:41 62.6 °F 49.8 °F 30.1 in SW 16.1 mph 16.1 mph 63 % 0 in
11:46 63.1 °F 49.8 °F 30 in WSW 17.3 mph 17.3 mph 62 % 0 in
11:47 63.1 °F 49.5 °F 30 in West 16.1 mph 16.1 mph 61 % 0 in
11:51 63.3 °F 50.2 °F 30 in West 16.1 mph 16.1 mph 62 % 0 in
11:57 63.1 °F 51.1 °F 30 in WSW 16 mph 16 mph 65 % 0 in
11:58 63 °F 51.1 °F 30 in WSW 18 mph 18 mph 65 % 0 in
11:59 63 °F 50.5 °F 30 in West 18.4 mph 18.4 mph 64 % 0 in
12:04 62.8 °F 51.3 °F 30 in WSW 18.4 mph 18.4 mph 66 % 0 in
12:05 62.8 °F 51.3 °F 30 in West 15 mph 15 mph 66 % 0 in
12:06 62.6 °F 51.1 °F 30 in WSW 15 mph 15 mph 66 % 0 in
12:11 62.8 °F 50.9 °F 30 in West 13.8 mph 13.8 mph 65 % 0 in
12:16 63.3 °F 50.2 °F 30 in West 13.8 mph 13.8 mph 62 % 0 in
12:17 63.7 °F 49.8 °F 30 in WNW 13.8 mph 13.8 mph 61 % 0 in
12:21 63.9 °F 50.2 °F 30 in WNW 13.8 mph 13.8 mph 61 % 0 in
12:25 63.9 °F 49.6 °F 30 in West 19.6 mph 19.6 mph 60 % 0 in
12:31 63.9 °F 49.3 °F 30 in WNW 8.1 mph 8.1 mph 59 % 0 in
12:32 64 °F 49.5 °F 30 in WSW 8 mph 8 mph 59 % 0 in
12:37 64 °F 48.9 °F 30 in WNW 13.8 mph 13.8 mph 58 % 0 in
12:39 64 °F 48.9 °F 30 in West 11.5 mph 11.5 mph 58 % 0 in
12:41 64 °F 48.9 °F 30 in West 13.8 mph 13.8 mph 58 % 0 in
12:44 64 °F 48.9 °F 30 in WSW 11.5 mph 11.5 mph 58 % 0 in
12:49 64.2 °F 49.1 °F 30 in West 9.2 mph 9.2 mph 58 % 0 in
12:54 64.4 °F 49.3 °F 30 in West 8.1 mph 8.1 mph 58 % 0 in
12:57 64.6 °F 48.9 °F 30 in WNW 13 mph 13 mph 57 % 0 in
13:00 64.8 °F 48.6 °F 30 in West 15 mph 15 mph 56 % 0 in
13:02 64.8 °F 48.6 °F 30 in WNW 15 mph 15 mph 56 % 0 in
13:07 64.8 °F 48.7 °F 30 in WNW 16.1 mph 16.1 mph 56 % 0 in
13:10 64.8 °F 48.7 °F 30 in West 8.1 mph 8.1 mph 56 % 0 in
13:13 64.8 °F 48.2 °F 30 in West 12.7 mph 12.8 mph 55 % 0 in
13:18 64.9 °F 48.4 °F 30 in West 10.4 mph 10.4 mph 55 % 0 in
13:23 64.9 °F 47.8 °F 30 in West 15 mph 15 mph 54 % 0 in
13:28 64.9 °F 48.4 °F 30 in West 15 mph 15 mph 55 % 0 in
13:33 64.9 °F 48.4 °F 30 in West 13.8 mph 13.8 mph 55 % 0 in
13:35 65.1 °F 48.6 °F 29.9 in West 12.7 mph 12.7 mph 55 % 0 in
13:36 65.1 °F 48.6 °F 29.9 in West 12.7 mph 12.7 mph 55 % 0 in
13:41 65.1 °F 48.6 °F 29.9 in WSW 15 mph 15 mph 55 % 0 in
13:46 65.1 °F 48.6 °F 29.9 in West 11.5 mph 11.5 mph 55 % 0 in
13:51 65.3 °F 48.2 °F 29.9 in WSW 13 mph 13 mph 54 % 0 in
13:53 65.3 °F 48.7 °F 29.9 in WSW 19.6 mph 19.6 mph 55 % 0 in
13:54 65.3 °F 48.7 °F 29.9 in WSW 19.6 mph 19.6 mph 55 % 0 in
13:59 65.1 °F 49.5 °F 29.9 in WSW 15 mph 15 mph 57 % 0 in
14:04 65.1 °F 49.5 °F 29.9 in WSW 11.5 mph 11.5 mph 57 % 0 in
14:08 64.9 °F 48.9 °F 29.9 in West 17.3 mph 17.3 mph 56 % 0 in
14:12 65.1 °F 49.5 °F 29.9 in West 16.1 mph 16.1 mph 57 % 0 in
14:17 64.9 °F 49.3 °F 29.9 in WSW 18.4 mph 18.4 mph 57 % 0 in
14:20 64.6 °F 49.5 °F 29.9 in West 23 mph 23 mph 58 % 0 in
14:25 64.2 °F 49.6 °F 29.9 in WSW 20.7 mph 20.7 mph 59 % 0 in
14:30 63.7 °F 49.5 °F 29.9 in West 24.2 mph 24.2 mph 60 % 0 in
14:33 63.5 °F 49.8 °F 29.9 in West 23 mph 23 mph 61 % 0 in
14:36 63.5 °F 49.8 °F 29.9 in WSW 21.9 mph 21.9 mph 61 % 0 in
14:40 63.7 °F 49.5 °F 29.9 in West 17.3 mph 17.3 mph 60 % 0 in
14:45 64.4 °F 49.3 °F 29.9 in West 19.6 mph 19.6 mph 58 % 0 in
14:50 64.9 °F 48.9 °F 29.9 in WSW 15 mph 15 mph 56 % 0 in
14:55 65.3 °F 49.3 °F 29.9 in West 13 mph 13 mph 56 % 0 in
14:58 65.5 °F 49.5 °F 29.9 in SW 11.5 mph 11.5 mph 56 % 0 in
14:59 65.7 °F 49.5 °F 29.9 in West 11.5 mph 11.5 mph 56 % 0 in
15:04 65.7 °F 49.1 °F 29.9 in West 17.3 mph 17.3 mph 55 % 0 in
15:08 65.7 °F 48.9 °F 29.9 in West 11.5 mph 11.5 mph 55 % 0 in
15:09 65.7 °F 48.9 °F 29.9 in West 12.7 mph 12.7 mph 55 % 0 in
15:15 65.3 °F 48.7 °F 29.9 in West 12 mph 16 mph 55 % 0 in
15:16 65.1 °F 48.6 °F 29.9 in WSW 21.9 mph 21.9 mph 55 % 0 in
15:22 64.9 °F 48.7 °F 29.9 in West 13.8 mph 13.8 mph 56 % 0 in
15:27 64.9 °F 48.4 °F 29.9 in West 11.5 mph 11.5 mph 55 % 0 in
15:32 65.3 °F 49.3 °F 29.9 in West 19.6 mph 19.6 mph 56 % 0 in
15:34 65.1 °F 50 °F 29.9 in WSW 19.6 mph 19.6 mph 58 % 0 in
15:39 64 °F 49.8 °F 29.9 in WSW 19.6 mph 19.6 mph 60 % 0 in
15:40 64 °F 50.4 °F 29.9 in WSW 16.1 mph 16.1 mph 61 % 0 in
15:46 63.3 °F 51.8 °F 29.9 in West 20.7 mph 20.7 mph 66 % 0 in
15:51 62.4 °F 52.5 °F 29.9 in WSW 19 mph 19 mph 70 % 0 in
15:55 62.2 °F 52.7 °F 29.9 in WSW 24 mph 24 mph 71 % 0 in
16:00 61.9 °F 53.1 °F 29.9 in WSW 23 mph 23 mph 73 % 0 in
16:03 61.7 °F 53.2 °F 29.9 in WSW 20.7 mph 20.7 mph 74 % 0 in
16:08 61.3 °F 52.9 °F 29.9 in WSW 23 mph 23 mph 74 % 0 in
16:13 61.3 °F 53.1 °F 29.9 in SW 24.2 mph 24.2 mph 74 % 0 in
16:18 61.3 °F 53.1 °F 29.9 in WSW 26.5 mph 26.5 mph 74 % 0 in
16:23 61.2 °F 52.9 °F 29.9 in WSW 25.3 mph 25.3 mph 74 % 0 in
16:24 61.2 °F 53.2 °F 29.9 in West 21.9 mph 21.9 mph 75 % 0 in
16:29 61 °F 53.1 °F 29.9 in West 25.3 mph 25.3 mph 75 % 0 in
16:35 61 °F 53.1 °F 29.9 in WSW 17 mph 29 mph 75 % 0 in
16:40 61 °F 53.1 °F 29.9 in WSW 20.7 mph 20.7 mph 75 % 0 in
16:45 61.2 °F 53.1 °F 29.9 in WSW 18.4 mph 18.4 mph 75 % 0 in
16:47 61.2 °F 53.1 °F 29.9 in SW 18.4 mph 18.4 mph 75 % 0 in
16:48 61.2 °F 53.1 °F 29.9 in WSW 24.2 mph 24.2 mph 75 % 0 in
16:54 61.2 °F 53.1 °F 29.9 in West 18.4 mph 18.4 mph 75 % 0 in
16:59 61 °F 53.1 °F 29.9 in WSW 20.7 mph 20.7 mph 75 % 0 in
17:01 61 °F 53.1 °F 29.9 in WSW 19.6 mph 19.6 mph 75 % 0 in
17:06 61.2 °F 53.1 °F 29.9 in West 21 mph 21 mph 75 % 0 in
17:11 61.2 °F 52.9 °F 29.9 in West 21 mph 21 mph 74 % 0 in
17:16 61.5 °F 52.9 °F 29.9 in West 19.6 mph 19.6 mph 73 % 0 in
17:21 61.5 °F 52.9 °F 29.9 in WSW 19.6 mph 19.6 mph 73 % 0 in
17:27 61.3 °F 52.5 °F 29.9 in West 17.3 mph 17.3 mph 73 % 0 in
17:28 61.3 °F 52.5 °F 29.9 in WSW 15 mph 15 mph 73 % 0 in
17:34 61.2 °F 52.5 °F 29.9 in West 17.3 mph 17.3 mph 73 % 0 in
17:36 61.2 °F 52.5 °F 29.9 in West 13.8 mph 13.8 mph 73 % 0 in
17:41 61.2 °F 52 °F 29.9 in WSW 19.6 mph 19.6 mph 72 % 0 in
17:43 61.2 °F 52 °F 29.9 in West 13.8 mph 13.8 mph 72 % 0 in
17:48 61.2 °F 51.6 °F 29.9 in West 19.6 mph 19.6 mph 71 % 0 in
17:52 61.2 °F 51.6 °F 29.9 in West 16.1 mph 16.1 mph 71 % 0 in
17:54 61.2 °F 51.6 °F 29.9 in WSW 20.7 mph 20.7 mph 71 % 0 in
17:59 61 °F 51.4 °F 29.9 in WNW 17.3 mph 17.3 mph 71 % 0 in
18:01 61 °F 51.4 °F 29.9 in West 15 mph 15 mph 71 % 0 in
18:05 61 °F 51.1 °F 29.9 in WSW 13.8 mph 13.8 mph 70 % 0 in
18:10 61 °F 51.1 °F 29.9 in West 8.1 mph 8.1 mph 70 % 0 in
18:12 61 °F 51.1 °F 29.9 in West 11.5 mph 11.5 mph 70 % 0 in
18:18 60.8 °F 51.1 °F 29.9 in WSW 7 mph 7 mph 70 % 0 in
18:23 60.6 °F 51.3 °F 29.9 in WSW 15 mph 15 mph 71 % 0 in
18:27 60.4 °F 51.1 °F 29.9 in West 9.2 mph 9.2 mph 71 % 0 in
18:32 60.4 °F 51.1 °F 29.9 in West 11.5 mph 11.5 mph 71 % 0 in
18:37 60.4 °F 51.1 °F 29.8 in West 13.8 mph 13.8 mph 71 % 0 in
18:40 60.4 °F 50.9 °F 29.8 in West 6 mph 14 mph 71 % 0 in
18:45 60.3 °F 50.7 °F 29.8 in West 13.8 mph 13.8 mph 71 % 0 in
18:50 60.1 °F 51.1 °F 29.8 in West 15 mph 15 mph 72 % 0 in
18:55 60.3 °F 50.7 °F 29.8 in West 16.1 mph 16.1 mph 71 % 0 in
18:58 60.3 °F 50.7 °F 29.8 in West 13.8 mph 13.8 mph 71 % 0 in
19:03 60.3 °F 50.7 °F 29.8 in WSW 13.8 mph 13.8 mph 71 % 0 in
19:04 60.3 °F 50.7 °F 29.8 in West 13.8 mph 13.8 mph 71 % 0 in
19:09 60.3 °F 51.4 °F 29.8 in WSW 17.3 mph 17.3 mph 73 % 0 in
19:12 60.1 °F 51.4 °F 29.8 in WSW 19.6 mph 19.6 mph 73 % 0 in
19:13 60.1 °F 51.8 °F 29.8 in WSW 19.6 mph 19.6 mph 74 % 0 in
19:18 60.1 °F 51.3 °F 29.8 in WNW 26.5 mph 26.5 mph 73 % 0 in
19:19 60.1 °F 51.3 °F 29.8 in West 23 mph 23 mph 73 % 0 in
19:20 60.1 °F 51.3 °F 29.8 in WSW 19 mph 19 mph 73 % 0 in
19:25 60.1 °F 51.3 °F 29.8 in West 11.5 mph 11.5 mph 73 % 0 in
19:27 60.1 °F 51.3 °F 29.8 in West 16.1 mph 16.1 mph 73 % 0 in
19:30 60.1 °F 51.3 °F 29.8 in WSW 13.8 mph 13.8 mph 73 % 0 in
19:32 60.1 °F 51.3 °F 29.8 in WSW 16.1 mph 16.1 mph 73 % 0 in
19:37 59.9 °F 51.3 °F 29.8 in WSW 15 mph 15 mph 73 % 0 in
19:38 59.9 °F 51.3 °F 29.8 in West 13.8 mph 13.8 mph 73 % 0 in
19:43 59.7 °F 51.4 °F 29.8 in West 11.5 mph 11.5 mph 74 % 0 in
19:44 59.7 °F 51.4 °F 29.8 in West 12.7 mph 12.7 mph 74 % 0 in
19:49 59.5 °F 51.3 °F 29.8 in West 12.7 mph 12.7 mph 74 % 0 in
19:50 59.5 °F 51.3 °F 29.8 in West 12.7 mph 12.7 mph 74 % 0 in
19:55 59.5 °F 51.3 °F 29.8 in WSW 11 mph 11 mph 74 % 0 in
19:59 59.5 °F 51.3 °F 29.8 in West 15 mph 15 mph 74 % 0 in
20:04 59.5 °F 51.3 °F 29.8 in West 10.4 mph 10.4 mph 74 % 0 in
20:09 59.5 °F 51.3 °F 29.8 in WSW 13.8 mph 13.8 mph 74 % 0 in
20:14 59.5 °F 51.3 °F 29.8 in West 11.5 mph 11.5 mph 74 % 0 in
20:15 59.5 °F 51.3 °F 29.8 in WSW 11 mph 11 mph 74 % 0 in
20:16 59.5 °F 51.3 °F 29.8 in WSW 12 mph 12 mph 74 % 0 in
20:21 59.5 °F 51.3 °F 29.8 in West 11.5 mph 11.5 mph 74 % 0 in
20:26 59.5 °F 51.3 °F 29.8 in West 11.5 mph 11.5 mph 74 % 0 in
20:27 59.5 °F 51.3 °F 29.8 in WSW 11.5 mph 11.5 mph 74 % 0 in
20:31 59.5 °F 51.6 °F 29.8 in WSW 8.1 mph 8.1 mph 75 % 0 in
20:33 59.5 °F 51.6 °F 29.8 in West 9.2 mph 9.2 mph 75 % 0 in
20:38 59.5 °F 51.6 °F 29.8 in West 11.5 mph 11.5 mph 75 % 0 in
20:39 59.5 °F 51.6 °F 29.8 in WSW 12 mph 12 mph 75 % 0 in
20:44 59.5 °F 51.6 °F 29.8 in WSW 11.5 mph 11.5 mph 75 % 0 in
20:48 59.5 °F 51.6 °F 29.8 in WSW 11.5 mph 11.5 mph 75 % 0 in
20:53 59.5 °F 52 °F 29.8 in WSW 11.5 mph 11.5 mph 76 % 0 in
20:58 59.5 °F 52 °F 29.8 in West 11.5 mph 11.5 mph 76 % 0 in
20:59 59.5 °F 52 °F 29.8 in WSW 11.5 mph 11.5 mph 76 % 0 in
21:04 59.5 °F 52 °F 29.8 in WSW 11.5 mph 11.5 mph 76 % 0 in
21:06 59.5 °F 52 °F 29.8 in SW 10.4 mph 10.4 mph 76 % 0 in
21:12 59.5 °F 52 °F 29.8 in WSW 8.1 mph 8.1 mph 76 % 0 in
21:15 59.4 °F 52.2 °F 29.8 in West 7 mph 9 mph 77 % 0 in
21:17 59.4 °F 52.2 °F 29.8 in West 5.8 mph 5.8 mph 77 % 0 in
21:20 59.4 °F 52.2 °F 29.8 in West 8.1 mph 8.1 mph 77 % 0 in
21:23 59.4 °F 52.2 °F 29.8 in West 8.1 mph 8.1 mph 77 % 0 in
21:27 59.4 °F 52.2 °F 29.8 in WSW 9.2 mph 9.2 mph 77 % 0 in
21:35 59.4 °F 52.5 °F 29.8 in WSW 9.2 mph 9.2 mph 78 % 0 in
21:40 59.5 °F 53.2 °F 29.8 in WSW 8 mph 8 mph 80 % 0 in
21:45 59.4 °F 53.2 °F 29.8 in WSW 11.5 mph 11.5 mph 80 % 0 in
21:50 59.2 °F 53.1 °F 29.8 in WSW 12.7 mph 12.7 mph 80 % 0 in
21:53 59.2 °F 53.4 °F 29.8 in West 16.1 mph 16.1 mph 81 % 0 in
21:58 59.2 °F 53.4 °F 29.8 in WSW 17.3 mph 17.3 mph 81 % 0 in
21:59 59.2 °F 53.4 °F 29.8 in WSW 16.1 mph 16.1 mph 81 % 0 in
22:01 59.2 °F 53.2 °F 29.8 in WSW 19.6 mph 19.6 mph 81 % 0 in
22:06 59.2 °F 52.9 °F 29.8 in WSW 15 mph 15 mph 80 % 0 in
22:09 59.2 °F 52.9 °F 29.8 in SW 16.1 mph 16.1 mph 80 % 0 in
22:10 59.2 °F 53.2 °F 29.8 in West 16.1 mph 16.1 mph 81 % 0 in
22:14 59.2 °F 53.4 °F 29.8 in WSW 13.8 mph 13.8 mph 81 % 0 in
22:19 59.2 °F 53.2 °F 29.8 in WSW 15 mph 15 mph 81 % 0 in
22:21 59.2 °F 53.2 °F 29.8 in WSW 13.8 mph 13.8 mph 81 % 0 in
22:22 59.2 °F 53.2 °F 29.8 in WSW 13.8 mph 13.8 mph 81 % 0 in
22:27 59 °F 53.2 °F 29.8 in WSW 13.8 mph 13.8 mph 81 % 0 in
22:30 59 °F 53.2 °F 29.8 in WSW 15 mph 15 mph 81 % 0 in
22:31 59 °F 53.2 °F 29.8 in WSW 15 mph 15 mph 81 % 0 in
22:36 58.8 °F 53.1 °F 29.8 in WSW 11.5 mph 11.5 mph 81 % 0 in
22:37 58.8 °F 53.1 °F 29.8 in West 10.4 mph 10.4 mph 81 % 0 in
22:42 58.8 °F 53.1 °F 29.8 in WSW 11.5 mph 11.5 mph 81 % 0 in
22:46 58.8 °F 52.7 °F 29.8 in WSW 15 mph 15 mph 80 % 0 in
22:49 58.8 °F 52.7 °F 29.8 in WSW 13.8 mph 13.8 mph 80 % 0 in
22:54 58.8 °F 53.1 °F 29.8 in West 13.8 mph 13.8 mph 81 % 0 in
22:55 59 °F 53.2 °F 29.8 in WSW 13.8 mph 13.8 mph 81 % 0 in
22:59 59 °F 53.2 °F 29.8 in West 13.8 mph 13.8 mph 81 % 0 in
23:02 59 °F 53.2 °F 29.8 in West 13.8 mph 13.8 mph 81 % 0 in
23:07 58.8 °F 53.1 °F 29.8 in WSW 17 mph 17 mph 81 % 0 in
23:12 58.8 °F 53.1 °F 29.8 in West 16.1 mph 16.1 mph 81 % 0 in
23:17 58.8 °F 53.1 °F 29.8 in WSW 13.8 mph 13.8 mph 81 % 0 in
23:18 58.8 °F 53.1 °F 29.8 in West 12 mph 12 mph 81 % 0 in
23:23 58.8 °F 53.1 °F 29.8 in WSW 15 mph 15 mph 81 % 0 in
23:28 59 °F 53.2 °F 29.8 in West 16.1 mph 16.1 mph 81 % 0 in
23:31 58.8 °F 52.7 °F 29.8 in WNW 16.1 mph 16.1 mph 80 % 0 in
23:35 58.8 °F 52.7 °F 29.8 in WSW 17 mph 17 mph 80 % 0 in
23:37 58.8 °F 52.7 °F 29.8 in WSW 19 mph 19 mph 80 % 0 in
23:41 58.8 °F 53.1 °F 29.7 in WSW 19 mph 19 mph 81 % 0 in
23:46 58.8 °F 53.1 °F 29.7 in WSW 17.3 mph 17.3 mph 81 % 0 in
23:50 58.8 °F 53.1 °F 29.7 in WSW 14 mph 20 mph 81 % 0 in
23:55 58.8 °F 52.7 °F 29.7 in West 19.6 mph 19.6 mph 80 % 0 in
23:56 58.8 °F 52.7 °F 29.7 in West 19.6 mph 19.6 mph 80 % 0 in
Puerto Banus, Marbella
Elogios de Weather Underground - 2 mb

Guión original por  Jim McMurry - jmcmurry@mwt.net Adaptado para la plantilla por  Wim van der Kuil - Leuven-Template.eu

Usted encontrará nuestra información del tiempo también en:

Weather Underground

Iberian Peninsula Weather Network